Home > Products > Valid Products > TAF

000
FTUS41 KGYX 240502 AAB
TAFAUG
TAF AMD
KAUG 240502Z 2405/2424 VRB03KT P6SM OVC012
     FM240800 05005KT P6SM OVC015
     FM241500 10007KT P6SM BKN025=



000
FTUS41 KGYX 240006 RRA
TAFAUG
TAF
KAUG 240006Z 2400/2424 15007KT P6SM SCT100
     FM240800 05005KT P6SM OVC015
     FM241500 10007KT P6SM BKN025=



000
FTUS41 KGYX 240006 RRA
TAFPSM
TAF
KPSM 240006Z 2400/2424 12005KT P6SM BKN100
     FM240700 04005KT P6SM -SHRA OVC025
     FM241100 07007KT 5SM -SHRA BR OVC015
     FM241700 09006KT P6SM BKN025=



000
FTUS41 KGYX 240006 RRA
TAFPWM
TAF
KPWM 240006Z 2400/2424 16005KT P6SM BKN120
     FM240600 05005KT 5SM BR OVC025
     FM241000 08006KT 5SM -SHRA BR OVC012
     FM241700 12007KT P6SM OVC025=



000
FTUS41 KGYX 240006 RRA
TAFCON
TAF
KCON 240006Z 2400/2424 VRB03KT P6SM BKN100
     FM241000 VRB03KT P6SM BKN025=



000
FTUS41 KGYX 240006 RRA
TAFLEB
TAF
KLEB 240006Z 2400/2424 VRB03KT P6SM SCT120
     FM241200 VRB03KT P6SM OVC040=



000
FTUS41 KGYX 232018 AAB
TAFLEB
TAF AMD
KLEB 232018Z 2320/2418 03009G18KT P6SM SCT070
     FM240000 VRB03KT P6SM FEW080
     FM240900 00000KT P6SM BKN050
     FM241200 VRB03KT P6SM OVC040=



000
FTUS41 KGYX 232017 AAA
TAFAUG
TAF AMD
KAUG 232017Z 2320/2418 36010G18KT P6SM SCT060 SCT100
     FM232300 VRB03KT P6SM SCT100
     FM240900 VRB03KT P6SM SCT025 BKN045
     FM241200 06006KT P6SM BKN025 OVC040=



000
FTUS41 KGYX 231726
TAFCON
TAF
KCON 231726Z 2318/2418 07007KT P6SM SCT060
     FM232100 11006KT P6SM SCT070
     FM240900 VRB03KT P6SM SCT025 BKN045
     FM241300 06005KT P6SM OVC020=



000
FTUS41 KGYX 231726
TAFAUG
TAF
KAUG 231726Z 2318/2418 04010G18KT P6SM SCT060 SCT100
     FM232300 VRB03KT P6SM SCT100
     FM240900 VRB03KT P6SM SCT025 BKN045
     FM241200 06006KT P6SM BKN025 OVC040=



000
FTUS41 KGYX 231726
TAFPWM
TAF
KPWM 231726Z 2318/2418 10008KT P6SM SCT050 SCT100
     FM232000 16007KT P6SM SCT100
     FM240800 04004KT P6SM SCT025 BKN045
     FM241200 08007KT P6SM OVC012=



000
FTUS41 KGYX 231726
TAFPSM
TAF
KPSM 231726Z 2318/2418 12007KT P6SM SCT060 SCT100
     FM232000 15008KT P6SM SCT060 SCT100
     FM240600 VRB03KT P6SM SCT025 BKN045
     FM241000 05006KT P6SM OVC015=



000
FTUS41 KGYX 231726
TAFLEB
TAF
KLEB 231726Z 2318/2418 VRB05KT P6SM SCT070
     FM240000 VRB03KT P6SM FEW080
     FM240900 00000KT P6SM BKN050
     FM241200 VRB03KT P6SM OVC040=



000
FTUS41 KGYX 231616 AAB
TAFLEB
TAF AMD
KLEB 231616Z 2316/2412 04010G18KT P6SM SCT050 SCT100
     FM240900 00000KT P6SM OVC050=



000
FTUS41 KGYX 231615 AAA
TAFAUG
TAF AMD
KAUG 231615Z 2316/2412 03010G18KT P6SM SCT050 SCT100
     FM240600 VRB03KT P6SM OVC100=



000
FTUS41 KGYX 231240 AAA
TAFLEB
TAF AMD
KLEB 231240Z 2313/2412 01005KT P6SM SCT050
     FM240900 00000KT P6SM OVC050=



000
FTUS41 KGYX 231121
TAFCON
TAF
KCON 231121Z 2312/2412 VRB03KT P6SM SCT050
     FM231700 07006KT P6SM SCT100
     FM240900 VRB03KT P6SM OVC050=



000
FTUS41 KGYX 231121
TAFPWM
TAF
KPWM 231121Z 2312/2412 VRB04KT P6SM SCT050
     FM232000 16007KT P6SM SCT100
     FM240600 00000KT P6SM OVC050=



000
FTUS41 KGYX 231121
TAFAUG
TAF
KAUG 231121Z 2312/2412 01006KT P6SM SCT050
     FM240600 VRB03KT P6SM OVC100=



000
FTUS41 KGYX 231121
TAFLEB
TAF
KLEB 231121Z 2312/2412 VRB03KT 2SM BR OVC001
     FM231300 01007KT P6SM SCT050
     FM240900 00000KT P6SM OVC050=



000
FTUS41 KGYX 231121
TAFPSM
TAF
KPSM 231121Z 2312/2412 VRB04KT P6SM SCT050
     FM231600 12008KT P6SM SCT100
     FM240600 VRB03KT P6SM OVC050=



000
FTUS41 KGYX 231103 AAB
TAFCON
TAF AMD
KCON 231103Z 2311/2406 VRB03KT P6SM SCT250
     FM231700 05006KT P6SM SCT100=



000
FTUS41 KGYX 230527
TAFPWM
TAF
KPWM 230527Z 2306/2406 VRB03KT P6SM SCT100
     FM231400 04009KT P6SM SCT050
     FM232000 16007KT P6SM SCT100=



000
FTUS41 KGYX 230527
TAFCON
TAF
KCON 230527Z 2306/2406 VRB03KT P6SM SCT250
      TEMPO 2310/2312 3SM BR
     FM231700 05006KT P6SM SCT100=



000
FTUS41 KGYX 230527
TAFLEB
TAF
KLEB 230527Z 2306/2406 VRB03KT 2SM BR SCT001
      TEMPO 2307/2311 1SM BR BKN001
     FM231300 01007KT P6SM SCT100=



000
FTUS41 KGYX 230527
TAFPSM
TAF
KPSM 230527Z 2306/2406 VRB03KT P6SM SCT100
      TEMPO 2309/2312 3SM BR
     FM231200 09008KT P6SM SCT100=



000
FTUS41 KGYX 230527
TAFAUG
TAF
KAUG 230527Z 2306/2406 VRB04KT P6SM SCT100
      TEMPO 2309/2312 3SM BR SCT005
     FM231200 02008KT P6SM SCT050
     FM232100 09006KT P6SM BKN050=



000
FTUS41 KGYX 221728
TAFAUG
TAF
KAUG 221728Z 2218/2318 10007KT P6SM SCT050 BKN100
     FM230000 01007KT P6SM SCT050 SCT100
     FM230600 VRB03KT 3SM BR SCT100
     FM231200 02009KT P6SM SCT050=



000
FTUS41 KGYX 221728
TAFCON
TAF
KCON 221728Z 2218/2318 10005KT P6SM SCT050 BKN100
     FM222200 02009KT P6SM SCT050 BKN100
     FM230000 VRB03KT P6SM FEW100
     FM231200 02008KT P6SM SCT050=



000
FTUS41 KGYX 221728
TAFPWM
TAF
KPWM 221728Z 2218/2318 10008KT P6SM BKN050 OVC100
     FM222200 01008KT P6SM SCT050 BKN100
     FM230300 33005KT 4SM BR SCT100
     FM231100 08010KT P6SM SCT050=



000
FTUS41 KGYX 221728
TAFPSM
TAF
KPSM 221728Z 2218/2318 10007KT P6SM SCT050 BKN120
     FM222200 01009KT P6SM SCT050 BKN100
     FM230400 VRB03KT 4SM BR SCT100
     FM231300 04009KT P6SM SCT050=



000
FTUS41 KGYX 221728
TAFLEB
TAF
KLEB 221728Z 2218/2318 04005KT P6SM SCT040 BKN100
      TEMPO 2218/2220 4SM -TSRA BKN040CB
     FM222000 04007KT P6SM VCTS SCT040CB BKN100
     FM230100 VRB03KT P6SM SCT100
     FM230800 VRB03KT 3SM BR FEW100
     FM231200 36007KT P6SM SCT050=



000
FTUS41 KGYX 221121
TAFLEB
TAF
KLEB 221121Z 2212/2312 04005KT P6SM SCT040 BKN100=



000
FTUS41 KGYX 221121
TAFAUG
TAF
KAUG 221121Z 2212/2312 14006KT P6SM SCT100
     FM221400 10007KT P6SM SCT050 BKN100
     FM230000 01007KT P6SM SCT050 BKN100=



000
FTUS41 KGYX 221121
TAFPSM
TAF
KPSM 221121Z 2212/2312 10007KT P6SM SCT050 BKN100
     FM222200 01009KT P6SM SCT050 BKN100=



000
FTUS41 KGYX 221121
TAFCON
TAF
KCON 221121Z 2212/2312 10005KT P6SM SCT050 BKN100
     FM222200 02009KT P6SM SCT050 BKN100=



000
FTUS41 KGYX 221121
TAFPWM
TAF
KPWM 221121Z 2212/2312 10008KT P6SM BKN050 OVC100
     FM222200 01008KT P6SM SCT050 BKN100=



000
FTUS41 KGYX 212338
TAFPWM
TAF
KPWM 212338Z 2200/2224 20005KT P6SM SCT100 OVC200
     FM221200 10008KT P6SM OVC040
     FM222000 01008KT P6SM BKN080=



000
FTUS41 KGYX 212338
TAFLEB
TAF
KLEB 212338Z 2200/2224 VRB03KT P6SM BKN200
     FM221200 01005KT P6SM OVC040 PROB30 2217/2221 -SHRA=



000
FTUS41 KGYX 212338
TAFCON
TAF
KCON 212338Z 2200/2224 VRB03KT P6SM OVC200
     FM221200 05005KT P6SM OVC040
     FM222100 36007KT P6SM BKN070=



000
FTUS41 KGYX 212338
TAFAUG
TAF
KAUG 212338Z 2200/2224 19006KT P6SM BKN200
     FM221200 10007KT P6SM OVC040
     FM222100 01006KT P6SM OVC080=



000
FTUS41 KGYX 212338
TAFPSM
TAF
KPSM 212338Z 2200/2224 19005KT P6SM OVC200
     FM221000 07008KT P6SM OVC040 PROB30 2214/2218 -SHRA OVC025
     FM222200 01008KT P6SM BKN080=



000
FTUS41 KGYX 211904 AAA
TAFAUG
TAF AMD
KAUG 211904Z 2119/2218 21012G20KT P6SM BKN250
     FM212300 18004KT P6SM OVC100
     FM221300 09007KT P6SM OVC080=



000
FTUS41 KGYX 211810 AAA
TAFPWM
TAF AMD
KPWM 211810Z 2118/2218 17012G20KT P6SM BKN250
     FM212300 19005KT P6SM OVC100
     FM221300 10009KT P6SM OVC080=



000
FTUS41 KGYX 211121
TAFPSM
TAF
KPSM 211121Z 2112/2212 23004KT P6SM BKN250
     FM211600 18009KT P6SM BKN250
     FM220000 18005KT P6SM OVC100=



000
FTUS41 KGYX 211121
TAFCON
TAF
KCON 211121Z 2112/2212 20006KT P6SM BKN250
     FM220000 18005KT P6SM OVC100=



000
FTUS41 KGYX 211121
TAFPWM
TAF
KPWM 211121Z 2112/2212 23004KT P6SM FEW250
     FM211600 18010KT P6SM BKN250
     FM220000 19005KT P6SM OVC100=



000
FTUS41 KGYX 211121
TAFAUG
TAF
KAUG 211121Z 2112/2212 21004KT P6SM SKC
     FM211700 21009KT P6SM BKN250
     FM220300 18004KT P6SM OVC100=



000
FTUS41 KGYX 211121
TAFLEB
TAF
KLEB 211121Z 2112/2212 VRB04KT P6SM BKN250
     FM212100 21005KT P6SM OVC100=



000
FTUS41 KGYX 210904 AAA
TAFPSM
TAF AMD
KPSM 210904Z 2109/2206 23004KT P6SM BKN250
     FM211600 18009KT P6SM BKN250
     FM220000 18005KT P6SM OVC100=



000
FTUS41 KGYX 210904 AAA
TAFPWM
TAF AMD
KPWM 210904Z 2109/2206 23004KT P6SM FEW250
     FM211600 18010KT P6SM BKN250
     FM220000 19005KT P6SM OVC100=



000
FTUS41 KGYX 210904 AAA
TAFCON
TAF AMD
KCON 210904Z 2109/2206 20006KT P6SM BKN250
     FM220000 18005KT P6SM OVC100=



000
FTUS41 KGYX 210904 AAA
TAFLEB
TAF AMD
KLEB 210904Z 2109/2206 VRB04KT P6SM BKN250
     FM212100 21005KT P6SM OVC100=



000
FTUS41 KGYX 210904 AAA
TAFAUG
TAF AMD
KAUG 210904Z 2109/2206 21004KT P6SM SKC
     FM211700 21009KT P6SM BKN250
     FM220300 18004KT P6SM OVC100=



    US Dept of Commerce
    National Oceanic and Atmospheric Administration
    National Weather Service
    1325 East West Highway
    Silver Spring, MD 20910
    Page Author: NWS Internet Services Team
Disclaimer
Information Quality
Credits
Glossary
Privacy Policy
Freedom of Information Act (FOIA)
About Us
Career Opportunities